createdAt,value
2022-11-09T00:01:02.448Z,23.63
2022-11-09T00:03:31.859Z,25.23
2022-11-09T00:06:00.899Z,23.27
2022-11-09T00:08:29.399Z,25.47
2022-11-09T00:11:03.513Z,24.10
2022-11-09T00:13:31.326Z,25.27
2022-11-09T00:15:59.795Z,24.63
2022-11-09T00:18:27.582Z,24.97
2022-11-09T00:20:57.116Z,24.57
2022-11-09T00:23:24.966Z,23.57
2022-11-09T00:25:52.777Z,26.90
2022-11-09T00:28:20.587Z,23.87
2022-11-09T00:30:48.520Z,25.50
2022-11-09T00:33:17.725Z,23.80
2022-11-09T00:35:45.733Z,23.27
2022-11-09T00:38:14.875Z,24.63
2022-11-09T00:40:42.704Z,23.10
2022-11-09T00:43:10.653Z,24.07
2022-11-09T00:45:40.692Z,25.07
2022-11-09T00:48:08.672Z,24.20
2022-11-09T00:50:36.867Z,22.77
2022-11-09T00:53:04.922Z,23.80
2022-11-09T00:55:34.151Z,24.60
2022-11-09T00:58:01.962Z,25.10
2022-11-09T01:00:29.880Z,25.23
2022-11-09T01:02:57.726Z,24.50
2022-11-09T01:05:26.481Z,22.70
2022-11-09T01:07:54.324Z,23.37
2022-11-09T01:10:24.124Z,23.83
2022-11-09T01:12:56.194Z,25.17
2022-11-09T01:15:24.208Z,24.07
2022-11-09T01:17:52.070Z,23.80
2022-11-09T01:20:19.916Z,23.93
2022-11-09T01:22:47.719Z,23.10
2022-11-09T01:25:15.643Z,23.97
2022-11-09T01:27:43.433Z,24.90
2022-11-09T01:30:14.076Z,24.10
2022-11-09T01:32:41.863Z,25.97
2022-11-09T01:35:10.307Z,25.13
2022-11-09T01:37:38.155Z,23.80
2022-11-09T01:40:07.241Z,25.03
2022-11-09T01:42:37.275Z,25.10
2022-11-09T01:45:22.940Z,25.33
2022-11-09T01:47:56.820Z,23.20
2022-11-09T01:50:32.787Z,23.47
2022-11-09T01:53:02.953Z,25.30
2022-11-09T01:55:31.634Z,23.83
2022-11-09T01:58:04.264Z,23.33
2022-11-09T02:00:35.231Z,27.17
2022-11-09T02:03:08.252Z,25.77
2022-11-09T02:05:39.662Z,25.07
2022-11-09T02:08:09.747Z,23.80
2022-11-09T02:10:45.163Z,25.13
2022-11-09T02:13:15.757Z,25.30
2022-11-09T02:15:46.090Z,23.53
2022-11-09T02:18:15.336Z,24.53
2022-11-09T02:20:50.283Z,24.43
2022-11-09T02:23:19.375Z,24.67
2022-11-09T02:25:52.112Z,23.87
2022-11-09T02:28:20.919Z,24.60
2022-11-09T02:30:53.264Z,24.97
2022-11-09T02:33:21.674Z,23.50
2022-11-09T02:35:51.929Z,24.03
2022-11-09T02:38:19.872Z,24.30
2022-11-09T02:40:52.103Z,23.60
2022-11-09T02:43:21.124Z,22.50
2022-11-09T02:45:49.498Z,23.30
2022-11-09T02:48:17.890Z,23.13
2022-11-09T02:50:45.724Z,24.20
2022-11-09T02:53:14.960Z,22.13
2022-11-09T02:55:45.699Z,24.27
2022-11-09T02:58:14.555Z,25.40
2022-11-09T03:00:42.950Z,23.00
2022-11-09T03:03:13.617Z,23.57
2022-11-09T03:05:44.789Z,23.77
2022-11-09T03:08:15.542Z,23.40
2022-11-09T03:10:43.499Z,23.03
2022-11-09T03:13:11.624Z,23.30
2022-11-09T03:15:39.543Z,24.57
2022-11-09T03:18:09.039Z,23.27
2022-11-09T03:20:36.896Z,25.20
2022-11-09T03:23:04.751Z,24.00
2022-11-09T03:25:36.639Z,23.33
2022-11-09T03:28:07.500Z,23.50
2022-11-09T03:30:36.105Z,24.67
2022-11-09T03:33:09.918Z,24.90
2022-11-09T03:35:38.725Z,23.23
2022-11-09T03:38:07.570Z,25.63
2022-11-09T03:40:37.857Z,22.97
2022-11-09T03:43:06.045Z,24.70
2022-11-09T03:45:34.344Z,23.70
2022-11-09T03:48:02.243Z,25.10
2022-11-09T03:50:31.517Z,23.53
2022-11-09T03:52:59.963Z,23.47
2022-11-09T03:55:28.579Z,24.43
2022-11-09T03:57:57.716Z,24.47
2022-11-09T04:00:26.457Z,24.70
2022-11-09T04:02:54.362Z,22.90
2022-11-09T04:05:23.006Z,24.37
2022-11-09T04:07:52.228Z,23.83
2022-11-09T04:10:20.568Z,24.17
2022-11-09T04:12:48.632Z,23.40
2022-11-09T04:15:18.295Z,22.20
2022-11-09T04:17:46.120Z,24.20
2022-11-09T04:20:14.164Z,23.50
2022-11-09T04:22:41.976Z,23.17
2022-11-09T04:25:10.071Z,22.60
2022-11-09T04:27:37.879Z,23.40
2022-11-09T04:30:06.789Z,23.70
2022-11-09T04:32:35.943Z,23.87
2022-11-09T04:35:04.064Z,23.77
2022-11-09T04:37:31.902Z,22.87
2022-11-09T04:39:59.751Z,22.50
2022-11-09T04:42:27.578Z,23.43
2022-11-09T04:44:55.408Z,22.33
2022-11-09T04:47:23.223Z,22.00
2022-11-09T04:49:52.620Z,22.80
2022-11-09T04:52:20.447Z,22.47
2022-11-09T04:54:48.244Z,22.37
2022-11-09T04:57:16.302Z,26.07
2022-11-09T04:59:44.097Z,22.20
2022-11-09T05:02:11.912Z,23.30
2022-11-09T05:04:39.864Z,22.63
2022-11-09T05:07:09.071Z,23.43
2022-11-09T05:09:36.968Z,21.60
2022-11-09T05:12:05.051Z,22.30
2022-11-09T05:14:32.855Z,24.77
2022-11-09T05:17:00.706Z,22.87
2022-11-09T05:19:28.562Z,23.63
2022-11-09T05:21:56.364Z,24.60
2022-11-09T05:24:24.553Z,23.00
2022-11-09T05:26:53.587Z,22.90
2022-11-09T05:29:21.395Z,23.73
2022-11-09T05:31:52.216Z,24.17
2022-11-09T05:34:20.439Z,22.43
2022-11-09T05:36:48.259Z,22.50
2022-11-09T05:39:16.099Z,24.97
2022-11-09T05:41:45.260Z,22.77
2022-11-09T05:44:13.067Z,22.70
2022-11-09T05:46:40.860Z,22.87
2022-11-09T05:49:08.750Z,23.67
2022-11-09T05:51:36.545Z,21.03
2022-11-09T05:54:04.401Z,24.10
2022-11-09T05:56:32.216Z,22.83
2022-11-09T05:59:01.399Z,23.23
2022-11-09T06:01:29.249Z,22.07
2022-11-09T06:03:57.096Z,24.33
2022-11-09T06:06:24.958Z,24.00
2022-11-09T06:08:52.832Z,23.90
2022-11-09T06:11:23.863Z,25.00
2022-11-09T06:13:53.242Z,26.30
2022-11-09T06:16:22.778Z,28.83
2022-11-09T06:18:50.784Z,24.53
2022-11-09T06:21:18.993Z,22.70
2022-11-09T06:23:46.842Z,21.67
2022-11-09T06:26:14.707Z,22.80
2022-11-09T06:28:42.923Z,21.40
2022-11-09T06:31:13.583Z,22.47
2022-11-09T06:33:42.939Z,21.20
2022-11-09T06:36:11.644Z,24.27
2022-11-09T06:38:39.612Z,22.33
2022-11-09T06:41:07.866Z,23.50
2022-11-09T06:43:35.674Z,24.10
2022-11-09T06:46:04.798Z,24.50
2022-11-09T06:48:32.718Z,23.07
2022-11-09T06:51:02.389Z,22.47
2022-11-09T06:53:31.146Z,23.47
2022-11-09T06:55:59.804Z,23.00
2022-11-09T06:58:28.277Z,22.00
2022-11-09T07:00:56.663Z,22.77
2022-11-09T07:03:25.328Z,23.00
2022-11-09T07:05:53.821Z,25.20
2022-11-09T07:08:22.991Z,25.93
2022-11-09T07:10:50.921Z,24.50
2022-11-09T07:13:19.038Z,23.50
2022-11-09T07:15:47.129Z,25.17
2022-11-09T07:18:14.956Z,25.20
2022-11-09T07:20:42.815Z,23.70
2022-11-09T07:23:10.616Z,25.20
2022-11-09T07:25:39.784Z,23.67
2022-11-09T07:28:09.464Z,23.00
2022-11-09T07:30:37.914Z,20.53
2022-11-09T07:33:12.298Z,21.33
2022-11-09T07:35:40.177Z,21.80
2022-11-09T07:38:08.503Z,24.63
2022-11-09T07:40:36.979Z,23.00
2022-11-09T07:43:07.289Z,21.70
2022-11-09T07:45:36.743Z,23.50
2022-11-09T07:48:06.515Z,20.57
2022-11-09T07:50:35.936Z,22.00
2022-11-09T07:53:05.515Z,21.73
2022-11-09T07:55:33.418Z,22.40
2022-11-09T07:58:03.296Z,22.30
2022-11-09T08:00:34.880Z,23.40
2022-11-09T08:03:02.983Z,21.17
2022-11-09T08:05:31.189Z,21.47
2022-11-09T08:08:00.483Z,20.70
2022-11-09T08:10:30.246Z,21.27
2022-11-09T08:13:00.150Z,21.47
2022-11-09T08:15:28.392Z,22.70
2022-11-09T08:18:00.882Z,19.53
2022-11-09T08:20:29.561Z,40.50
2022-11-09T08:23:03.360Z,47.37
2022-11-09T08:25:31.974Z,24.23
2022-11-09T08:28:00.016Z,19.83
2022-11-09T08:30:28.220Z,35.00
2022-11-09T08:32:57.425Z,27.67
2022-11-09T08:35:25.901Z,26.00
2022-11-09T08:37:54.835Z,20.13
2022-11-09T08:40:25.248Z,18.70
2022-11-09T08:42:53.753Z,18.83
2022-11-09T08:45:22.929Z,18.07
2022-11-09T08:48:00.047Z,19.97
2022-11-09T08:50:28.917Z,17.83
2022-11-09T08:52:57.302Z,18.07
2022-11-09T08:55:25.908Z,17.87
2022-11-09T08:57:55.345Z,17.23
2022-11-09T09:00:23.736Z,17.90
2022-11-09T09:02:51.656Z,18.53
2022-11-09T09:05:21.224Z,17.67
2022-11-09T09:07:49.079Z,19.30
2022-11-09T09:10:17.026Z,18.13
2022-11-09T09:12:44.879Z,18.17
2022-11-09T09:15:12.940Z,19.33
2022-11-09T09:17:40.767Z,17.47
2022-11-09T09:20:08.938Z,17.30
2022-11-09T09:22:38.272Z,17.73
2022-11-09T09:25:07.187Z,18.10
2022-11-09T09:27:35.111Z,20.20
2022-11-09T09:30:03.372Z,18.70
2022-11-09T09:32:31.234Z,17.80
2022-11-09T09:34:59.070Z,17.47
2022-11-09T09:37:26.878Z,17.17
2022-11-09T09:39:57.114Z,17.30
2022-11-09T09:42:31.781Z,16.67
2022-11-09T09:45:04.042Z,17.20
2022-11-09T09:47:45.324Z,20.73
2022-11-09T09:50:18.799Z,18.90
2022-11-09T09:53:17.566Z,19.30
2022-11-09T09:55:44.624Z,19.20
2022-11-09T09:58:14.839Z,18.60
2022-11-09T10:00:43.470Z,17.40
2022-11-09T10:03:18.393Z,18.30
2022-11-09T10:06:06.171Z,17.03
2022-11-09T10:08:43.940Z,16.80
2022-11-09T10:11:24.127Z,17.63
2022-11-09T10:14:04.909Z,16.00
2022-11-09T10:16:38.586Z,16.63
2022-11-09T10:19:25.380Z,16.77
2022-11-09T10:22:01.296Z,15.73
2022-11-09T10:24:58.648Z,16.70
2022-11-09T10:27:36.166Z,15.40
2022-11-09T10:30:13.117Z,17.10
2022-11-09T10:32:43.384Z,17.40
2022-11-09T10:35:19.582Z,18.40
2022-11-09T10:37:49.990Z,17.77
2022-11-09T10:40:22.596Z,19.97
2022-11-09T10:43:12.812Z,19.37
2022-11-09T10:46:04.775Z,18.53
2022-11-09T10:48:52.226Z,16.90
2022-11-09T10:51:41.559Z,18.50
2022-11-09T10:54:31.175Z,18.93
2022-11-09T10:57:19.222Z,19.53
2022-11-09T11:00:15.876Z,16.70
2022-11-09T11:03:12.383Z,17.90
2022-11-09T11:06:00.563Z,19.97
2022-11-09T11:08:49.296Z,19.70
2022-11-09T11:11:38.387Z,19.30
2022-11-09T11:14:31.184Z,20.40
2022-11-09T11:17:27.235Z,18.97
2022-11-09T11:20:28.485Z,20.07
2022-11-09T11:23:18.281Z,20.10
2022-11-09T11:26:21.654Z,18.30
2022-11-09T11:29:19.149Z,17.80
2022-11-09T11:32:11.024Z,16.43
2022-11-09T11:35:00.645Z,17.73
2022-11-09T11:37:59.732Z,15.37
2022-11-09T11:41:00.864Z,15.13
2022-11-09T11:43:55.276Z,15.00
2022-11-09T11:46:47.232Z,16.90
2022-11-09T11:49:56.297Z,13.87
2022-11-09T11:52:58.149Z,14.93
2022-11-09T11:56:11.234Z,15.50
2022-11-09T11:59:30.271Z,15.70
2022-11-09T12:02:35.384Z,14.83
2022-11-09T12:05:50.457Z,15.00
2022-11-09T12:09:08.278Z,15.80
2022-11-09T12:12:06.538Z,19.07
2022-11-09T12:15:03.660Z,18.70
2022-11-09T12:18:01.503Z,17.10
2022-11-09T12:20:58.467Z,17.10
2022-11-09T12:24:02.597Z,18.33
2022-11-09T12:27:18.312Z,18.67
2022-11-09T12:30:13.950Z,18.30
2022-11-09T12:33:04.407Z,19.73
2022-11-09T12:35:55.605Z,21.00
2022-11-09T12:38:50.019Z,20.53
2022-11-09T12:41:39.971Z,20.33
2022-11-09T12:44:30.353Z,21.17
2022-11-09T12:47:23.464Z,23.87
2022-11-09T12:50:14.829Z,22.00
2022-11-09T12:53:04.146Z,22.40
2022-11-09T12:55:56.385Z,22.03
2022-11-09T12:58:44.805Z,25.10
2022-11-09T13:01:50.746Z,25.47
2022-11-09T13:04:37.547Z,23.43
2022-11-09T13:07:49.690Z,24.90
2022-11-09T13:10:38.540Z,24.60
2022-11-09T13:13:26.283Z,22.73
2022-11-09T13:16:33.412Z,21.10
2022-11-09T13:19:54.267Z,20.50
2022-11-09T13:23:01.630Z,20.60
2022-11-09T13:25:53.007Z,19.77
2022-11-09T13:29:01.171Z,20.40
2022-11-09T13:32:03.599Z,21.60
2022-11-09T13:34:51.336Z,20.00
2022-11-09T13:37:54.660Z,30.30
2022-11-09T13:40:47.024Z,38.73
2022-11-09T13:43:34.740Z,20.60
2022-11-09T13:46:27.322Z,20.73
2022-11-09T13:49:47.469Z,19.80
2022-11-09T13:52:58.977Z,22.57
2022-11-09T13:55:45.581Z,23.17
2022-11-09T13:58:36.493Z,23.30
2022-11-09T14:01:34.343Z,24.47
2022-11-09T14:04:26.555Z,23.90
2022-11-09T14:07:21.210Z,24.50
2022-11-09T14:10:18.811Z,26.37
2022-11-09T14:13:20.406Z,23.93
2022-11-09T14:16:15.313Z,24.67
2022-11-09T14:19:14.015Z,23.60
2022-11-09T14:22:00.266Z,24.60
2022-11-09T14:24:48.191Z,22.77
2022-11-09T14:27:34.656Z,23.07
2022-11-09T14:30:23.397Z,23.70
2022-11-09T14:33:24.859Z,23.10
2022-11-09T14:36:12.809Z,22.03
2022-11-09T14:39:02.203Z,21.13
2022-11-09T14:41:50.617Z,21.97
2022-11-09T14:44:42.169Z,22.63
2022-11-09T14:47:31.506Z,20.47
2022-11-09T14:50:21.105Z,22.27
2022-11-09T14:53:07.980Z,20.10
2022-11-09T14:55:56.203Z,20.60
2022-11-09T14:58:45.393Z,20.30
2022-11-09T15:01:32.490Z,21.40
2022-11-09T15:04:21.310Z,23.83
2022-11-09T15:07:08.280Z,21.63
2022-11-09T15:09:58.711Z,21.93
2022-11-09T15:12:49.891Z,23.10
2022-11-09T15:15:38.690Z,22.00
2022-11-09T15:18:33.447Z,22.43
2022-11-09T15:21:34.453Z,22.13
2022-11-09T15:24:21.810Z,23.60
2022-11-09T15:27:30.625Z,21.63
2022-11-09T15:30:35.778Z,21.73
2022-11-09T15:33:26.659Z,31.23
2022-11-09T15:36:38.961Z,38.93
2022-11-09T15:39:27.315Z,30.90
2022-11-09T15:42:14.400Z,37.17
2022-11-09T15:45:01.137Z,54.57
2022-11-09T15:47:52.976Z,34.13
2022-11-09T15:50:40.930Z,36.07
2022-11-09T15:53:27.835Z,26.30
2022-11-09T15:56:18.487Z,25.27
2022-11-09T15:59:04.915Z,25.00
2022-11-09T16:01:51.181Z,23.20
2022-11-09T16:04:37.579Z,24.03
2022-11-09T16:07:25.282Z,21.90
2022-11-09T16:10:14.295Z,21.67
2022-11-09T16:13:00.468Z,21.70
2022-11-09T16:15:46.966Z,23.30
2022-11-09T16:18:34.093Z,25.30
2022-11-09T16:21:20.617Z,38.03
2022-11-09T16:24:09.472Z,30.20
2022-11-09T16:26:55.987Z,26.90
2022-11-09T16:29:42.468Z,25.57
2022-11-09T16:32:29.047Z,27.00
2022-11-09T16:35:26.600Z,26.20
2022-11-09T16:38:13.897Z,26.83
2022-11-09T16:41:04.569Z,25.70
2022-11-09T16:43:53.737Z,26.37
2022-11-09T16:46:42.857Z,32.97
2022-11-09T16:49:29.720Z,31.67
2022-11-09T16:52:16.198Z,25.77
2022-11-09T16:55:02.775Z,24.73
2022-11-09T16:57:50.638Z,26.20
2022-11-09T17:01:03.892Z,26.20
2022-11-09T17:03:43.483Z,26.50
2022-11-09T17:06:30.031Z,27.13
2022-11-09T17:09:17.443Z,26.00
2022-11-09T17:12:03.978Z,25.40
2022-11-09T17:14:51.583Z,27.80
2022-11-09T17:17:38.138Z,26.10
2022-11-09T17:20:24.724Z,27.13
2022-11-09T17:23:12.119Z,27.60
2022-11-09T17:26:00.263Z,29.60
2022-11-09T17:28:46.866Z,27.90
2022-11-09T17:31:34.495Z,31.43
2022-11-09T17:34:21.023Z,29.00
2022-11-09T17:37:07.468Z,30.10
2022-11-09T17:39:53.977Z,27.60
2022-11-09T17:42:40.418Z,27.00
2022-11-09T17:45:26.885Z,28.40
2022-11-09T17:48:14.504Z,26.13
2022-11-09T17:51:01.116Z,27.03
2022-11-09T17:53:47.786Z,27.30
2022-11-09T17:56:35.067Z,29.97
2022-11-09T17:59:21.428Z,26.53
2022-11-09T18:02:08.299Z,29.10
2022-11-09T18:04:56.191Z,27.67
2022-11-09T18:07:42.884Z,26.97
2022-11-09T18:10:29.357Z,28.30
2022-11-09T18:13:17.869Z,26.80
2022-11-09T18:16:06.958Z,27.07
2022-11-09T18:18:53.534Z,32.33
2022-11-09T18:21:41.442Z,56.20
2022-11-09T18:24:28.099Z,37.93
2022-11-09T18:27:14.308Z,28.73
2022-11-09T18:30:02.401Z,26.23
2022-11-09T18:32:49.191Z,29.20
2022-11-09T18:35:35.749Z,28.53
2022-11-09T18:38:28.983Z,27.67
2022-11-09T18:41:18.150Z,26.47
2022-11-09T18:44:04.516Z,27.30
2022-11-09T18:46:51.327Z,29.00
2022-11-09T18:49:37.462Z,27.63
2022-11-09T18:52:24.282Z,27.70
2022-11-09T18:55:12.353Z,26.30
2022-11-09T18:57:58.920Z,32.40
2022-11-09T19:00:46.075Z,29.83
2022-11-09T19:03:32.964Z,63.50
2022-11-09T19:06:21.501Z,35.40
2022-11-09T19:09:27.739Z,52.97
2022-11-09T19:12:15.682Z,31.97
2022-11-09T19:15:02.106Z,29.07
2022-11-09T19:17:49.946Z,30.37
2022-11-09T19:20:39.215Z,27.83
2022-11-09T19:23:32.853Z,26.57
2022-11-09T19:26:21.516Z,27.80
2022-11-09T19:29:10.390Z,29.77
2022-11-09T19:31:56.890Z,27.97
2022-11-09T19:34:43.613Z,29.07
2022-11-09T19:37:29.904Z,27.80
2022-11-09T19:40:16.923Z,26.60
2022-11-09T19:43:03.377Z,28.80
2022-11-09T19:45:51.328Z,27.13
2022-11-09T19:48:37.848Z,26.60
2022-11-09T19:51:24.861Z,28.00
2022-11-09T19:54:14.359Z,28.10
2022-11-09T19:57:00.780Z,27.67
2022-11-09T19:59:47.367Z,28.77
2022-11-09T20:02:35.214Z,31.03
2022-11-09T20:05:21.764Z,30.63
2022-11-09T20:08:08.228Z,28.67
2022-11-09T20:10:55.476Z,30.40
2022-11-09T20:13:42.030Z,31.30
2022-11-09T20:16:29.000Z,30.23
2022-11-09T20:19:16.551Z,29.67
2022-11-09T20:22:03.235Z,32.20
2022-11-09T20:24:49.709Z,30.00
2022-11-09T20:27:35.977Z,31.47
2022-11-09T20:30:22.701Z,31.67
2022-11-09T20:33:10.544Z,32.97
2022-11-09T20:35:58.327Z,31.63
2022-11-09T20:38:44.739Z,30.43
2022-11-09T20:41:31.381Z,31.77
2022-11-09T20:44:17.628Z,29.90
2022-11-09T20:47:04.704Z,31.30
2022-11-09T20:49:51.324Z,30.47
2022-11-09T20:52:39.136Z,30.73
2022-11-09T20:55:25.897Z,30.50
2022-11-09T20:58:13.589Z,30.07
2022-11-09T21:01:02.215Z,29.10
2022-11-09T21:03:50.726Z,31.57
2022-11-09T21:06:37.354Z,30.93
2022-11-09T21:09:25.347Z,30.30
2022-11-09T21:12:24.892Z,29.33
2022-11-09T21:15:14.021Z,29.97
2022-11-09T21:18:00.564Z,31.93
2022-11-09T21:20:47.059Z,31.83
2022-11-09T21:23:51.395Z,32.40
2022-11-09T21:26:56.841Z,31.93
2022-11-09T21:29:52.579Z,31.37
2022-11-09T21:32:39.383Z,32.70
2022-11-09T21:35:26.362Z,34.33
2022-11-09T21:38:12.927Z,33.47
2022-11-09T21:41:05.386Z,32.97
2022-11-09T21:43:55.680Z,31.30
2022-11-09T21:46:43.604Z,32.93
2022-11-09T21:49:30.672Z,30.33
2022-11-09T21:52:17.201Z,28.97
2022-11-09T21:55:03.339Z,30.97
2022-11-09T21:57:50.016Z,31.03
2022-11-09T22:00:38.059Z,32.53
2022-11-09T22:03:24.632Z,31.40
2022-11-09T22:06:11.479Z,30.93
2022-11-09T22:08:57.870Z,30.43
2022-11-09T22:12:02.632Z,30.80
2022-11-09T22:15:07.015Z,30.13
2022-11-09T22:17:55.828Z,29.47
2022-11-09T22:20:56.331Z,29.77
2022-11-09T22:23:42.558Z,30.37
2022-11-09T22:26:30.737Z,31.60
2022-11-09T22:29:17.322Z,29.97
2022-11-09T22:32:03.959Z,31.37
2022-11-09T22:34:51.786Z,30.70
2022-11-09T22:37:38.171Z,30.43
2022-11-09T22:40:24.710Z,33.10
2022-11-09T22:43:11.606Z,30.03
2022-11-09T22:46:03.692Z,32.27
2022-11-09T22:48:50.437Z,31.50
2022-11-09T22:51:38.278Z,29.90
2022-11-09T22:54:24.542Z,30.70
2022-11-09T22:57:11.411Z,31.53
2022-11-09T22:59:57.910Z,30.60
2022-11-09T23:02:44.382Z,30.57
2022-11-09T23:05:31.099Z,32.60
2022-11-09T23:08:18.857Z,31.40
2022-11-09T23:11:06.603Z,29.87
2022-11-09T23:13:53.868Z,31.83
2022-11-09T23:16:40.013Z,28.07
2022-11-09T23:19:25.361Z,28.70
2022-11-09T23:22:11.587Z,27.70
2022-11-09T23:25:16.983Z,28.10
2022-11-09T23:28:03.732Z,29.20
2022-11-09T23:30:49.915Z,27.03
2022-11-09T23:33:36.222Z,28.27
2022-11-09T23:36:23.582Z,27.30
2022-11-09T23:39:10.083Z,27.33
2022-11-09T23:41:57.852Z,28.60
2022-11-09T23:44:44.248Z,26.13
2022-11-09T23:47:30.910Z,26.17
2022-11-09T23:50:17.871Z,26.70
2022-11-09T23:53:04.266Z,29.20
2022-11-09T23:55:50.832Z,26.27
2022-11-09T23:58:39.428Z,27.70
